HE21 weather

Ras Shukhayr New Airport
Red Sea Governorate, Egypt

Public forecast

Using degrees Celsius for public forecast. Weather courtesy of forecast.io.

Closest aviation weather report (METAR) to Ras Shukhayr New Airport

Closest report is El Tor Airport, 23.3 nm (43.1 km) E. Retrieved 2019/10/22 12:00 UTC (18 minutes ago):

HETR 221200Z 00000KT 9999 SCT025 33/17 Q1007

Closest aviation forecast (TAF) to Ras Shukhayr New Airport

Closest forecast is El Tor Airport, 23.3 nm (43.1 km) E. Retrieved 2019/10/22 12:00 UTC (18 minutes ago):

TAF HETR 221100Z 2212/2318 31010G22KT 9999 SCT025 TEMPO 2212/2218 6000 RA BKN030